Unity, New Hampshire
Current Conditions -  °F | °C
As of 11:54 PM on Friday 19 Dec 2014 (Local Time) from KVSF Reporting Station
Overcast Overcast  
Wind Chill: 13°   Ceiling: 2300
Heat Index: 22°   Visibility: 10mi
Dew Point: 15°   Wind: 8mph
Humidity: 75%   Direction: 360°N
Pressure: 30.19"   Gusts: NA
Location:  43.3506°N, 72.3252°W
Report Text: KVSF 200454Z AUTO 36007KT 10SM OVC023 M06/M09 A3019 RMK AO2 SLP234 T10561094 410061056 TSNO
Loading
Personal Weather Stations






























Interactive Weather Map New forecast layout! Learn more

10-Day Weather Forecast

Advertisements
Track Severe Weather on mobile